LTCA

Elazığ Airport

Elazığ, Turkey
TAF LTCA 210740Z 2109/2118 30008KT 9999 FEW035 BECMG 2115/2117 CAVOK
Issued Valid From Valid To
Jul-21 @ 07:40 UTC
(2 hours ago)
Jul-21 @ 09:00 UTC
(46 minutes ago)
Jul-21 @ 18:00 UTC
(in 8 hours)
Jul-21 @ 09:00 to Jul-21 @ 15:00
TAF LTCA 210740Z 2109/2118 30008KT 9999 FEW035
Wind Visibility Clouds
300° at 8 knots 10,000+ meters
  • Few at 3,500' AGL
Becoming Jul-21 @ 15:00 to Jul-21 @ 18:00
BECMG 2115/2117 CAVOK
Wind Visibility Clouds Conditions
300° at 8 knots 10,000+ meters
  • No significant clouds
TAF LTCA 210740Z 2109/2118 30008KT 9999 FEW035 BECMG 2115/2117 CAVOK
Issued Jul-21 @ 07:40 UTC
(2 hours ago)
Valid From Jul-21 @ 09:00 UTC
(46 minutes ago)
Valid To Jul-21 @ 18:00 UTC
(in 8 hours)
Jul-21 @ 09:00 - Jul-21 @ 15:00
Wind Visibility
300° at 8 knots 10,000+ meters
Clouds
  • Few at 3,500' AGL
Becoming Jul-21 @ 15:00 - Jul-21 @ 18:00
Wind Visibility
300° at 8 knots 10,000+ meters
Clouds
  • No significant clouds
Conditions